Time;durP1;ratioP1;P1;durP2;ratioP2;P2;SDS_P1;SDS_P2;PMS_P1;PMS_P2;Temp;Humidity;BMP_temperature;BMP_pressure;BME280_temperature;BME280_humidity;BME280_pressure;Samples;Min_cycle;Max_cycle;Signal;HPM_P1;HPM_P2
2021/06/05 00:02:55;;;;;;;0.80;0.60;;;22.70;52.20;;;;;;6340096;28;20553;-67
2021/06/05 00:05:59;;;;;;;0.50;0.50;;;22.70;52.20;;;;;;6341796;28;20041;-67
2021/06/05 00:08:59;;;;;;;0.68;0.68;;;22.70;52.90;;;;;;6341203;28;20027;-67
2021/06/05 00:12:00;;;;;;;0.70;0.70;;;22.70;52.20;;;;;;6341179;28;20039;-67
2021/06/05 00:15:07;;;;;;;0.80;0.70;;;22.70;52.20;;;;;;6341705;28;20048;-67
2021/06/05 00:18:07;;;;;;;2.97;0.80;;;22.70;52.20;;;;;;6341027;28;20031;-67
2021/06/05 00:21:09;;;;;;;0.90;0.70;;;22.70;52.20;;;;;;6322323;28;20024;-67
2021/06/05 00:24:10;;;;;;;0.70;0.70;;;22.70;52.20;;;;;;6342065;28;20028;-67
2021/06/05 00:27:10;;;;;;;1.17;0.98;;;22.70;52.20;;;;;;6341132;28;20049;-67
2021/06/05 00:30:11;;;;;;;0.85;0.70;;;22.70;52.20;;;;;;6340292;28;20425;-67
2021/06/05 00:33:12;;;;;;;0.70;0.70;;;22.70;52.20;;;;;;6340860;28;20031;-67
2021/06/05 00:36:13;;;;;;;1.00;0.75;;;22.70;52.20;;;;;;6340871;28;20055;-67
2021/06/05 00:39:14;;;;;;;0.93;0.70;;;22.70;52.20;;;;;;6340420;28;20065;-67
2021/06/05 00:42:15;;;;;;;0.80;0.80;;;22.70;52.20;;;;;;6340395;28;20027;-67
2021/06/05 00:45:18;;;;;;;0.80;0.70;;;22.70;52.20;;;;;;6340963;28;20026;-67
2021/06/05 00:48:20;;;;;;;0.70;0.70;;;22.70;52.20;;;;;;6340109;28;20032;-67
2021/06/05 00:51:33;;;;;;;0.90;0.50;;;22.70;52.20;;;;;;6339869;28;20289;-67
2021/06/05 00:54:34;;;;;;;0.75;0.75;;;22.70;52.20;;;;;;6324572;28;20600;-67
2021/06/05 00:57:35;;;;;;;0.77;0.77;;;22.70;52.30;;;;;;6314854;28;20071;-67
2021/06/05 01:00:39;;;;;;;1.52;0.80;;;22.70;52.20;;;;;;6314530;28;20032;-67
2021/06/05 01:03:39;;;;;;;0.70;0.63;;;22.70;52.20;;;;;;6314407;28;20494;-67
2021/06/05 01:07:20;;;;;;;0.93;0.70;;;22.70;52.20;;;;;;6314903;28;20050;-67
2021/06/05 01:10:26;;;;;;;1.00;0.77;;;22.70;52.20;;;;;;6314316;28;20054;-67
2021/06/05 01:13:51;;;;;;;0.90;0.80;;;22.70;52.20;;;;;;6313982;28;20090;-67
2021/06/05 01:16:57;;;;;;;1.05;0.90;;;22.70;52.20;;;;;;6314553;28;20031;-67
2021/06/05 01:20:10;;;;;;;0.70;0.70;;;22.70;52.20;;;;;;6314252;28;20063;-65
2021/06/05 01:23:14;;;;;;;0.82;0.70;;;22.70;52.20;;;;;;6314516;28;20026;-66
2021/06/05 01:26:25;;;;;;;1.00;0.75;;;22.70;52.20;;;;;;6315014;28;20024;-66
2021/06/05 01:29:31;;;;;;;0.70;0.63;;;22.70;52.20;;;;;;6314251;28;20078;-66
2021/06/05 01:32:33;;;;;;;1.08;0.50;;;22.70;52.20;;;;;;6313997;28;20047;-65
2021/06/05 01:35:36;;;;;;;0.80;0.80;;;22.70;52.30;;;;;;6314150;28;20492;-66
2021/06/05 01:38:43;;;;;;;0.68;0.60;;;22.70;52.20;;;;;;6313615;28;20024;-65
2021/06/05 01:41:46;;;;;;;0.70;0.70;;;22.70;52.30;;;;;;6313882;28;20120;-66
2021/06/05 01:44:51;;;;;;;1.10;0.70;;;22.70;52.30;;;;;;6313457;28;20028;-66
2021/06/05 01:47:54;;;;;;;0.60;0.60;;;22.70;52.30;;;;;;6313685;28;20024;-66
2021/06/05 01:50:56;;;;;;;0.85;0.70;;;22.70;52.20;;;;;;6313932;28;20020;-66
2021/06/05 01:54:05;;;;;;;0.98;0.85;;;22.70;52.20;;;;;;6306828;28;20487;-66
2021/06/05 01:57:10;;;;;;;0.70;0.68;;;22.70;52.30;;;;;;6339441;28;20210;-66
2021/06/05 02:00:18;;;;;;;0.98;0.57;;;22.70;52.30;;;;;;6312412;28;20068;-65
2021/06/05 02:03:21;;;;;;;1.05;0.73;;;22.70;52.30;;;;;;6338681;28;20122;-66
2021/06/05 02:06:23;;;;;;;0.60;0.60;;;22.70;52.30;;;;;;6338974;28;20078;-66
2021/06/05 02:09:25;;;;;;;0.70;0.63;;;22.70;52.30;;;;;;6338576;28;20392;-66
2021/06/05 02:12:30;;;;;;;0.70;0.60;;;22.70;52.30;;;;;;6339070;28;20028;-66
2021/06/05 02:15:34;;;;;;;1.00;0.70;;;22.70;52.30;;;;;;6338510;28;20031;-65
2021/06/05 02:18:36;;;;;;;0.65;0.63;;;22.70;52.30;;;;;;6339058;28;20451;-65
2021/06/05 02:21:41;;;;;;;1.42;0.70;;;22.70;52.30;;;;;;6338062;28;20077;-66
2021/06/05 02:24:49;;;;;;;;;;;22.70;52.30;;;;;;6338277;28;20527;-66
2021/06/05 02:27:55;;;;;;;0.70;0.70;;;22.70;52.30;;;;;;6338399;28;20356;-66
2021/06/05 02:30:59;;;;;;;0.52;0.52;;;22.70;52.30;;;;;;6338635;28;20035;-66
2021/06/05 02:34:02;;;;;;;0.80;0.65;;;22.70;52.30;;;;;;6338145;28;20619;-65
2021/06/05 02:37:07;;;;;;;0.90;0.73;;;22.70;52.30;;;;;;6338338;28;20027;-66
2021/06/05 02:40:12;;;;;;;0.75;0.65;;;22.70;52.30;;;;;;6337627;28;20057;-66
2021/06/05 02:43:20;;;;;;;0.93;0.68;;;22.70;52.30;;;;;;6338220;28;20020;-66
2021/06/05 02:46:34;;;;;;;0.85;0.75;;;22.70;52.30;;;;;;6337626;28;20501;-65
2021/06/05 02:49:36;;;;;;;2.50;0.70;;;22.70;52.30;;;;;;6322547;28;20038;-66
2021/06/05 02:52:37;;;;;;;0.57;0.50;;;22.70;52.30;;;;;;6319916;28;20377;-66
2021/06/05 02:55:38;;;;;;;0.73;0.55;;;22.70;52.30;;;;;;6338049;28;20126;-66
2021/06/05 02:58:39;;;;;;;0.75;0.70;;;22.70;52.30;;;;;;6338051;28;20027;-66
2021/06/05 03:01:40;;;;;;;0.82;0.68;;;22.70;52.30;;;;;;6337630;28;20055;-65
2021/06/05 03:04:41;;;;;;;0.65;0.65;;;22.70;52.30;;;;;;6337887;28;20027;-65
2021/06/05 03:07:41;;;;;;;1.13;0.70;;;22.70;52.30;;;;;;6338077;28;20019;-65
2021/06/05 03:10:42;;;;;;;0.82;0.70;;;22.70;52.30;;;;;;6337749;28;20027;-65
2021/06/05 03:13:43;;;;;;;0.60;0.60;;;22.70;52.30;;;;;;6319648;28;20020;-65
2021/06/05 03:16:44;;;;;;;0.70;0.60;;;22.70;52.30;;;;;;6337943;28;20287;-65
2021/06/05 03:19:45;;;;;;;0.60;0.60;;;22.70;52.30;;;;;;6337458;28;20031;-65
2021/06/05 03:22:46;;;;;;;0.68;0.57;;;22.70;52.30;;;;;;6337138;28;20024;-66
2021/06/05 03:25:47;;;;;;;0.55;0.55;;;22.70;52.30;;;;;;6337422;28;20059;-66
2021/06/05 03:28:49;;;;;;;0.88;0.70;;;22.70;52.30;;;;;;6337292;28;20812;-66
2021/06/05 03:31:50;;;;;;;0.90;0.75;;;22.70;52.30;;;;;;6337905;28;20051;-66
2021/06/05 03:34:52;;;;;;;0.65;0.65;;;22.70;52.40;;;;;;6337682;28;20542;-66
2021/06/05 03:37:53;;;;;;;0.75;0.60;;;22.70;52.40;;;;;;6342441;28;20047;-66
2021/06/05 03:40:55;;;;;;;0.80;0.70;;;22.70;52.30;;;;;;6341836;28;20468;-66
2021/06/05 03:43:56;;;;;;;0.70;0.70;;;22.70;52.30;;;;;;6342275;28;20482;-66
2021/06/05 03:46:56;;;;;;;0.60;0.50;;;22.70;52.30;;;;;;6342402;28;20024;-66
2021/06/05 03:49:57;;;;;;;0.88;0.77;;;22.70;52.30;;;;;;6341454;28;20310;-65
2021/06/05 03:52:58;;;;;;;0.63;0.63;;;22.70;52.70;;;;;;6341708;28;20031;-66
2021/06/05 03:55:59;;;;;;;0.90;0.70;;;22.70;52.40;;;;;;6341537;28;20051;-65
2021/06/05 03:59:00;;;;;;;0.70;0.70;;;22.70;52.40;;;;;;6341419;28;20111;-66
2021/06/05 04:02:01;;;;;;;0.60;0.60;;;22.70;52.40;;;;;;6341518;28;20019;-66
2021/06/05 04:05:03;;;;;;;1.00;0.80;;;22.70;52.40;;;;;;6342026;28;20089;-66
2021/06/05 04:08:05;;;;;;;0.80;0.68;;;22.70;52.30;;;;;;6341217;28;20094;-66
2021/06/05 04:11:07;;;;;;;0.57;0.57;;;22.70;52.40;;;;;;6341127;28;20381;-66
2021/06/05 04:14:10;;;;;;;1.15;0.70;;;22.70;52.30;;;;;;6332714;28;20101;-66
2021/06/05 04:17:11;;;;;;;0.80;0.80;;;22.70;52.40;;;;;;6341068;28;20059;-65
2021/06/05 04:20:16;;;;;;;0.70;0.60;;;22.70;52.40;;;;;;6340573;28;20020;-65
2021/06/05 04:23:17;;;;;;;0.63;0.60;;;22.70;52.30;;;;;;6341130;28;20016;-66
2021/06/05 04:26:20;;;;;;;1.27;0.70;;;22.70;52.40;;;;;;6341163;28;20030;-65
2021/06/05 04:29:21;;;;;;;0.60;0.60;;;22.70;52.40;;;;;;6341267;28;20081;-66
2021/06/05 04:32:22;;;;;;;0.88;0.70;;;22.70;52.40;;;;;;6341064;28;20515;-66
2021/06/05 04:35:23;;;;;;;0.77;0.77;;;22.70;52.30;;;;;;6341593;28;20020;-66
2021/06/05 04:38:24;;;;;;;0.85;0.73;;;22.70;52.40;;;;;;6340779;28;20031;-66
2021/06/05 04:41:25;;;;;;;0.75;0.57;;;22.70;52.30;;;;;;6340342;28;20027;-65
2021/06/05 04:44:25;;;;;;;0.90;0.80;;;22.70;52.40;;;;;;6341006;28;20227;-65
2021/06/05 04:47:27;;;;;;;0.82;0.70;;;22.70;52.40;;;;;;6339885;28;20523;-66
2021/06/05 04:50:36;;;;;;;0.77;0.73;;;22.70;52.40;;;;;;6340888;28;20118;-66
2021/06/05 04:53:37;;;;;;;0.77;0.70;;;22.70;52.40;;;;;;6332946;28;20024;-65
2021/06/05 04:56:43;;;;;;;0.60;0.60;;;22.70;52.40;;;;;;6339913;28;20063;-66
2021/06/05 04:59:44;;;;;;;0.60;0.50;;;22.70;52.30;;;;;;6339911;28;20027;-65
2021/06/05 05:02:45;;;;;;;0.80;0.70;;;22.70;52.30;;;;;;6311174;28;20055;-66
2021/06/05 05:05:47;;;;;;;1.33;0.63;;;22.70;52.40;;;;;;6340170;28;20031;-66
2021/06/05 05:08:47;;;;;;;0.77;0.60;;;22.70;52.40;;;;;;6339851;28;20107;-66
2021/06/05 05:11:48;;;;;;;1.65;0.65;;;22.70;52.40;;;;;;6340156;28;20404;-66
2021/06/05 05:14:48;;;;;;;0.80;0.60;;;22.70;52.40;;;;;;6339295;28;20108;-65
2021/06/05 05:17:51;;;;;;;0.80;0.55;;;22.70;52.40;;;;;;6340025;28;20316;-66
2021/06/05 05:20:52;;;;;;;0.65;0.60;;;22.70;52.40;;;;;;6339907;28;20120;-66
2021/06/05 05:23:55;;;;;;;0.60;0.60;;;22.70;52.40;;;;;;6339896;28;20584;-65
2021/06/05 05:26:56;;;;;;;0.70;0.70;;;22.70;52.40;;;;;;6322059;28;20024;-65
2021/06/05 05:29:57;;;;;;;1.30;0.77;;;22.70;52.40;;;;;;6340039;28;20058;-65
2021/06/05 05:32:59;;;;;;;0.60;0.60;;;22.70;52.40;;;;;;6339964;28;20028;-65
2021/06/05 05:35:59;;;;;;;0.80;0.70;;;22.70;52.40;;;;;;6339874;28;20086;-66
2021/06/05 05:39:04;;;;;;;0.70;0.60;;;22.70;52.40;;;;;;6339340;28;20506;-65
2021/06/05 05:42:05;;;;;;;0.80;0.70;;;22.70;52.40;;;;;;6339176;28;21113;-65
2021/06/05 05:45:07;;;;;;;0.70;0.70;;;22.70;52.40;;;;;;6339465;28;20036;-66
2021/06/05 05:48:09;;;;;;;0.50;0.47;;;22.70;52.40;;;;;;6320715;28;20028;-66
2021/06/05 05:51:13;;;;;;;0.68;0.60;;;22.70;52.40;;;;;;6338888;28;20028;-66
2021/06/05 05:54:14;;;;;;;0.60;0.60;;;22.70;52.40;;;;;;6320793;28;20529;-66
2021/06/05 05:57:15;;;;;;;1.23;0.63;;;22.70;52.40;;;;;;6320600;28;20127;-66
2021/06/05 06:00:25;;;;;;;0.70;0.68;;;22.70;52.40;;;;;;6337796;28;20054;-66
2021/06/05 06:03:25;;;;;;;0.75;0.60;;;22.70;52.40;;;;;;6339737;28;20012;-66
2021/06/05 06:06:29;;;;;;;1.10;0.73;;;22.70;52.40;;;;;;6338734;28;20415;-65
2021/06/05 06:09:30;;;;;;;0.80;0.70;;;22.70;52.40;;;;;;6338077;28;20032;-65
2021/06/05 06:12:31;;;;;;;0.63;0.60;;;22.70;52.50;;;;;;6320668;28;20058;-66
2021/06/05 06:15:34;;;;;;;0.60;0.60;;;22.70;52.40;;;;;;6338673;28;20027;-66
2021/06/05 06:18:38;;;;;;;0.50;0.43;;;22.70;52.40;;;;;;6338903;28;20411;-66
2021/06/05 06:21:43;;;;;;;0.60;0.60;;;22.70;52.40;;;;;;6338577;28;20473;-66
2021/06/05 06:24:45;;;;;;;0.95;0.68;;;22.70;52.40;;;;;;6339577;28;20016;-66
2021/06/05 06:27:48;;;;;;;0.70;0.68;;;22.70;52.40;;;;;;6338855;28;20063;-66
2021/06/05 06:30:49;;;;;;;0.40;0.40;;;22.70;52.40;;;;;;6337926;28;20228;-66
2021/06/05 06:33:50;;;;;;;0.73;0.60;;;22.70;52.40;;;;;;6339228;28;20038;-67
2021/06/05 06:36:51;;;;;;;0.70;0.63;;;22.70;52.60;;;;;;6320207;28;20085;-67
2021/06/05 06:39:52;;;;;;;0.65;0.60;;;22.70;53.10;;;;;;6338249;28;20481;-67
2021/06/05 06:42:53;;;;;;;0.93;0.70;;;22.70;52.40;;;;;;6320579;28;20107;-66
2021/06/05 06:45:54;;;;;;;0.60;0.60;;;22.70;52.40;;;;;;6339171;28;20420;-65
2021/06/05 06:48:57;;;;;;;0.50;0.50;;;22.70;52.40;;;;;;6338521;28;20427;-65
2021/06/05 06:51:58;;;;;;;0.50;0.50;;;22.70;52.40;;;;;;6338565;28;20055;-65
2021/06/05 06:54:59;;;;;;;0.80;0.50;;;22.70;52.40;;;;;;6337714;28;20052;-68
2021/06/05 06:58:00;;;;;;;0.50;0.50;;;22.70;52.40;;;;;;6339096;28;20151;-68
2021/06/05 07:01:11;;;;;;;0.50;0.50;;;22.70;52.40;;;;;;6338606;28;20251;-69
2021/06/05 07:04:12;;;;;;;0.50;0.50;;;22.70;52.50;;;;;;6338468;28;20016;-69
2021/06/05 07:07:12;;;;;;;0.98;0.73;;;22.70;52.40;;;;;;6348483;28;20369;-69
2021/06/05 07:10:15;;;;;;;0.60;0.50;;;22.70;52.50;;;;;;6338514;28;20034;-69
2021/06/05 07:13:17;;;;;;;0.77;0.70;;;22.70;52.50;;;;;;6342993;28;20031;-69
2021/06/05 07:16:18;;;;;;;0.45;0.45;;;22.80;52.50;;;;;;6342690;28;20015;-69
2021/06/05 07:19:20;;;;;;;0.60;0.60;;;22.70;52.40;;;;;;6343376;28;20381;-69
2021/06/05 07:22:20;;;;;;;0.80;0.47;;;22.70;52.40;;;;;;6342409;28;20053;-68
2021/06/05 07:25:21;;;;;;;1.13;0.70;;;22.70;52.40;;;;;;6343141;28;20110;-68
2021/06/05 07:28:28;;;;;;;0.70;0.60;;;22.70;52.40;;;;;;6323922;28;20027;-69
2021/06/05 07:31:36;;;;;;;0.60;0.60;;;22.70;52.40;;;;;;6342395;28;20096;-69
2021/06/05 07:34:37;;;;;;;0.40;0.40;;;22.70;52.40;;;;;;6343078;28;20300;-68
2021/06/05 07:37:38;;;;;;;0.60;0.60;;;22.70;52.50;;;;;;6342503;28;20081;-68
2021/06/05 07:40:41;;;;;;;0.55;0.52;;;22.70;52.40;;;;;;6342096;28;20331;-69
2021/06/05 07:43:42;;;;;;;0.80;0.45;;;22.70;52.40;;;;;;6324753;28;20077;-69
2021/06/05 07:46:50;;;;;;;0.70;0.55;;;22.70;52.40;;;;;;6342644;28;20020;-68
2021/06/05 07:49:52;;;;;;;1.42;0.60;;;22.70;52.50;;;;;;6342433;28;20318;-69
2021/06/05 07:52:53;;;;;;;0.50;0.50;;;22.70;52.40;;;;;;6319779;28;20028;-69
2021/06/05 07:55:54;;;;;;;0.60;0.43;;;22.70;52.40;;;;;;6342085;28;20049;-69
2021/06/05 07:58:55;;;;;;;0.52;0.40;;;22.70;52.40;;;;;;6342767;28;20027;-69
2021/06/05 08:01:56;;;;;;;0.80;0.70;;;22.70;52.40;;;;;;6341246;28;20027;-68
2021/06/05 08:04:57;;;;;;;0.70;0.60;;;22.70;52.40;;;;;;6341854;28;20027;-68
2021/06/05 08:07:57;;;;;;;0.70;0.70;;;22.70;52.40;;;;;;6352986;27;20042;-69
2021/06/05 08:10:58;;;;;;;0.63;0.57;;;22.80;52.50;;;;;;6341586;28;20240;-69
2021/06/05 08:13:59;;;;;;;0.60;0.60;;;22.70;52.40;;;;;;6341799;28;20047;-69
2021/06/05 08:17:00;;;;;;;0.70;0.60;;;22.70;52.40;;;;;;6341711;28;20106;-69
2021/06/05 08:20:02;;;;;;;0.30;0.30;;;22.70;52.50;;;;;;6341481;28;20503;-69
2021/06/05 08:23:04;;;;;;;0.50;0.50;;;22.70;52.40;;;;;;6340655;28;20077;-69
2021/06/05 08:26:06;;;;;;;0.38;0.38;;;22.70;52.50;;;;;;6342166;28;20015;-69
2021/06/05 08:29:07;;;;;;;0.55;0.50;;;22.70;52.50;;;;;;6342720;28;20039;-69
2021/06/05 08:32:08;;;;;;;0.40;0.40;;;22.70;52.50;;;;;;6342311;28;20020;-68
2021/06/05 08:35:09;;;;;;;0.73;0.50;;;22.70;52.50;;;;;;6342842;28;20034;-65
2021/06/05 08:38:13;;;;;;;0.60;0.60;;;22.70;52.50;;;;;;6343817;28;20023;-67
2021/06/05 08:41:22;;;;;;;0.82;0.55;;;22.70;52.50;;;;;;6341527;28;20031;-67
2021/06/05 08:44:35;;;;;;;0.50;0.35;;;22.70;52.50;;;;;;6341494;28;20016;-67
2021/06/05 08:47:37;;;;;;;0.35;0.35;;;22.70;52.50;;;;;;6322868;28;20054;-67
2021/06/05 08:50:38;;;;;;;0.50;0.50;;;22.70;52.40;;;;;;6342187;28;20015;-67
2021/06/05 08:53:39;;;;;;;0.50;0.50;;;22.70;52.70;;;;;;6341636;28;20039;-67
2021/06/05 08:56:40;;;;;;;0.68;0.40;;;22.70;52.50;;;;;;6341505;28;20050;-67
2021/06/05 08:59:44;;;;;;;0.50;0.50;;;22.70;52.50;;;;;;6340660;28;20055;-67
2021/06/05 09:02:48;;;;;;;0.65;0.50;;;22.70;52.50;;;;;;6340937;28;20023;-67
2021/06/05 09:06:08;;;;;;;0.70;0.70;;;22.70;52.50;;;;;;6340749;28;20024;-67
2021/06/05 09:09:12;;;;;;;0.80;0.60;;;22.70;52.70;;;;;;6340385;28;20283;-67
2021/06/05 09:12:13;;;;;;;0.40;0.40;;;22.70;52.50;;;;;;6341193;28;20034;-67
2021/06/05 09:15:29;;;;;;;0.70;0.60;;;22.70;52.50;;;;;;6341268;28;20031;-68
2021/06/05 09:18:45;;;;;;;0.80;0.60;;;22.70;52.50;;;;;;6340938;28;20400;-66
2021/06/05 09:21:56;;;;;;;0.50;0.40;;;22.70;52.50;;;;;;6322666;28;20411;-67
2021/06/05 09:24:57;;;;;;;1.10;0.60;;;22.70;52.50;;;;;;6339799;28;20110;-67
2021/06/05 09:28:21;;;;;;;0.60;0.60;;;22.70;52.50;;;;;;6340575;28;20032;-67
2021/06/05 09:31:26;;;;;;;0.50;0.45;;;22.70;52.50;;;;;;6321943;28;20027;-67
2021/06/05 09:34:37;;;;;;;;;;;22.70;52.50;;;;;;6340797;28;20022;-67
2021/06/05 09:37:39;;;;;;;0.50;0.40;;;22.70;52.50;;;;;;6342540;28;20003;-66
2021/06/05 09:40:55;;;;;;;0.40;0.40;;;22.70;52.50;;;;;;6340485;28;20032;-65
2021/06/05 09:44:19;;;;;;;0.65;0.60;;;22.70;52.50;;;;;;6339846;28;20028;-65
2021/06/05 09:47:24;;;;;;;0.30;0.30;;;22.70;52.50;;;;;;6339887;28;20518;-65
2021/06/05 09:50:36;;;;;;;0.68;0.60;;;22.70;52.50;;;;;;6339781;28;20507;-66
2021/06/05 09:53:39;;;;;;;0.50;0.50;;;22.70;52.50;;;;;;6339557;28;20535;-65
2021/06/05 09:56:43;;;;;;;0.32;0.32;;;22.70;52.50;;;;;;6336314;28;20062;-66
2021/06/05 09:59:56;;;;;;;0.50;0.50;;;22.70;52.50;;;;;;6339411;28;20060;-66
2021/06/05 10:03:29;;;;;;;0.30;0.30;;;22.70;52.50;;;;;;6338774;28;20036;-66
2021/06/05 10:06:41;;;;;;;0.60;0.52;;;22.70;52.50;;;;;;6339309;28;20455;-67
2021/06/05 10:09:43;;;;;;;0.35;0.32;;;22.70;52.50;;;;;;6321370;28;20031;-67
2021/06/05 10:12:44;;;;;;;0.50;0.50;;;22.70;52.50;;;;;;6321241;28;20369;-67
2021/06/05 10:15:59;;;;;;;0.77;0.52;;;22.70;52.50;;;;;;6339318;28;20020;-66
2021/06/05 10:19:11;;;;;;;0.47;0.47;;;22.70;52.50;;;;;;6338571;28;20040;-66
2021/06/05 10:22:13;;;;;;;0.43;0.40;;;22.70;52.60;;;;;;6338827;28;20027;-67
2021/06/05 10:25:30;;;;;;;0.60;0.50;;;22.70;52.50;;;;;;6339566;28;20339;-67
2021/06/05 10:28:45;;;;;;;0.43;0.43;;;22.70;52.50;;;;;;6321192;28;20067;-67
2021/06/05 10:31:47;;;;;;;0.30;0.30;;;22.70;52.50;;;;;;6320225;28;20392;-67
2021/06/05 10:34:53;;;;;;;0.30;0.30;;;22.70;52.50;;;;;;6338862;28;20441;-67
2021/06/05 10:38:06;;;;;;;0.55;0.40;;;22.70;52.50;;;;;;6338738;28;20019;-67
2021/06/05 10:41:11;;;;;;;0.38;0.38;;;22.70;52.50;;;;;;6338359;28;20035;-67
2021/06/05 10:44:12;;;;;;;0.38;0.38;;;22.70;52.50;;;;;;6338676;28;20329;-67
2021/06/05 10:47:28;;;;;;;0.60;0.50;;;22.70;52.50;;;;;;6325103;28;20328;-67
2021/06/05 10:50:32;;;;;;;0.30;0.30;;;22.70;52.50;;;;;;6344300;28;20031;-67
2021/06/05 10:53:51;;;;;;;0.50;0.50;;;22.70;52.50;;;;;;6312982;28;20330;-67
2021/06/05 10:56:55;;;;;;;0.40;0.40;;;22.70;52.50;;;;;;6336970;28;20419;-67
2021/06/05 10:59:59;;;;;;;0.73;0.50;;;22.70;52.50;;;;;;6343672;28;20028;-67
2021/06/05 11:03:00;;;;;;;0.50;0.50;;;22.70;52.50;;;;;;6325977;28;20088;-67
2021/06/05 11:06:05;;;;;;;0.70;0.45;;;22.70;52.50;;;;;;6353889;27;20019;-67
2021/06/05 11:09:24;;;;;;;0.30;0.30;;;22.70;52.50;;;;;;6308049;28;20020;-66
2021/06/05 11:12:24;;;;;;;0.50;0.50;;;22.70;52.50;;;;;;6343241;28;20134;-67
2021/06/05 11:15:49;;;;;;;0.50;0.50;;;22.70;52.50;;;;;;6346028;28;20024;-67
2021/06/05 11:19:04;;;;;;;0.43;0.40;;;22.70;52.60;;;;;;6345416;28;20026;-67
2021/06/05 11:22:16;;;;;;;0.40;0.40;;;22.70;52.60;;;;;;6343930;28;20499;-66
2021/06/05 11:25:17;;;;;;;0.40;0.40;;;22.70;52.60;;;;;;6343478;28;20489;-67
2021/06/05 11:28:23;;;;;;;0.40;0.40;;;22.70;52.50;;;;;;6343301;28;20039;-67
2021/06/05 11:31:48;;;;;;;0.45;0.45;;;22.70;52.50;;;;;;6342196;28;20098;-67
2021/06/05 11:34:54;;;;;;;0.40;0.40;;;22.70;52.50;;;;;;6342880;28;20205;-67
2021/06/05 11:37:57;;;;;;;0.30;0.30;;;22.70;52.50;;;;;;6342708;28;20028;-67
2021/06/05 11:41:29;;;;;;;0.50;0.50;;;22.70;52.50;;;;;;6342711;28;20031;-67
2021/06/05 11:44:38;;;;;;;0.47;0.47;;;22.70;52.60;;;;;;6324508;28;20388;-67
2021/06/05 11:47:43;;;;;;;0.50;0.43;;;22.70;52.60;;;;;;6342986;28;20073;-66
2021/06/05 11:50:44;;;;;;;0.50;0.50;;;22.70;52.50;;;;;;6342422;28;20073;-67
2021/06/05 11:53:48;;;;;;;0.55;0.50;;;22.70;52.60;;;;;;6319683;28;20031;-69
2021/06/05 11:56:57;;;;;;;0.50;0.50;;;22.70;52.50;;;;;;6308554;28;20047;-68
2021/06/05 12:00:16;;;;;;;0.35;0.35;;;22.70;52.50;;;;;;6324272;28;20164;-69
2021/06/05 12:03:27;;;;;;;0.63;0.40;;;22.70;52.50;;;;;;6342090;28;20030;-69
2021/06/05 12:06:32;;;;;;;0.57;0.50;;;22.70;52.50;;;;;;6342574;28;20050;-68
2021/06/05 12:09:41;;;;;;;0.50;0.50;;;22.70;53.20;;;;;;6341631;28;20034;-69
2021/06/05 12:12:48;;;;;;;0.60;0.60;;;22.70;52.50;;;;;;6324323;28;20020;-69
2021/06/05 12:15:50;;;;;;;0.40;0.40;;;22.70;52.50;;;;;;6341525;28;20039;-69
2021/06/05 12:18:51;;;;;;;0.45;0.45;;;22.70;52.60;;;;;;6341513;28;20016;-69
2021/06/05 12:21:52;;;;;;;0.40;0.40;;;22.70;52.60;;;;;;6341580;28;20070;-68
2021/06/05 12:24:53;;;;;;;0.50;0.50;;;22.70;52.60;;;;;;6343422;28;20448;-69
2021/06/05 12:28:13;;;;;;;0.40;0.40;;;22.70;52.60;;;;;;6323488;28;20476;-69
2021/06/05 12:31:30;;;;;;;0.40;0.40;;;22.70;52.60;;;;;;6341282;28;20324;-68
2021/06/05 12:34:38;;;;;;;0.40;0.40;;;22.70;52.60;;;;;;6341317;28;20029;-68
2021/06/05 12:37:38;;;;;;;0.50;0.50;;;22.70;52.60;;;;;;6323170;28;20031;-69
2021/06/05 12:40:45;;;;;;;0.50;0.40;;;22.70;52.60;;;;;;6340912;28;20035;-68
2021/06/05 12:43:46;;;;;;;0.43;0.32;;;22.70;52.60;;;;;;6323485;28;20365;-69
2021/06/05 12:46:48;;;;;;;0.50;0.50;;;22.70;52.60;;;;;;6338478;28;20024;-69
2021/06/05 12:49:49;;;;;;;0.52;0.47;;;22.70;52.60;;;;;;6340883;28;20308;-69
2021/06/05 12:52:52;;;;;;;0.30;0.30;;;22.70;52.60;;;;;;6320969;28;20315;-68
2021/06/05 12:55:59;;;;;;;0.60;0.50;;;22.70;52.60;;;;;;6340711;28;20626;-68
2021/06/05 12:59:05;;;;;;;0.68;0.60;;;22.70;52.60;;;;;;6342257;28;20024;-69
2021/06/05 13:02:24;;;;;;;0.47;0.40;;;22.70;52.60;;;;;;6322137;28;20041;-69
2021/06/05 13:05:28;;;;;;;0.30;0.30;;;22.70;52.60;;;;;;6358765;27;20396;-68
2021/06/05 13:08:41;;;;;;;0.30;0.30;;;22.70;52.60;;;;;;6321956;28;20054;-68
2021/06/05 13:11:45;;;;;;;0.50;0.50;;;22.70;52.60;;;;;;6340441;28;20452;-69
2021/06/05 13:15:01;;;;;;;0.63;0.52;;;22.70;52.60;;;;;;6340374;28;20483;-69
2021/06/05 13:18:02;;;;;;;0.38;0.38;;;22.70;52.60;;;;;;6340401;28;20023;-69
2021/06/05 13:21:07;;;;;;;0.45;0.40;;;22.70;52.60;;;;;;6321581;28;20452;-68
2021/06/05 13:24:09;;;;;;;0.38;0.38;;;22.70;52.60;;;;;;6340606;28;20357;-69
2021/06/05 13:27:17;;;;;;;0.40;0.35;;;22.70;52.60;;;;;;6340172;28;20035;-69
2021/06/05 13:30:23;;;;;;;0.70;0.40;;;22.70;52.60;;;;;;6338974;28;20104;-69
2021/06/05 13:33:24;;;;;;;;;;;22.70;52.60;;;;;;6340055;28;20024;-69
2021/06/05 13:36:29;;;;;;;0.40;0.40;;;22.70;52.60;;;;;;6340105;28;19904;-68
2021/06/05 13:39:30;;;;;;;;;;;22.70;52.60;;;;;;6321242;28;20055;-69
2021/06/05 13:42:34;;;;;;;0.60;0.57;;;22.70;52.60;;;;;;6340060;28;19908;-69
2021/06/05 13:45:35;;;;;;;0.43;0.40;;;22.70;52.60;;;;;;6340036;28;20106;-69
2021/06/05 13:48:36;;;;;;;0.85;0.55;;;22.70;52.60;;;;;;6339544;28;20257;-69
2021/06/05 13:51:37;;;;;;;0.55;0.45;;;22.70;52.60;;;;;;6338719;28;20049;-69
2021/06/05 13:54:38;;;;;;;0.50;0.50;;;22.70;52.60;;;;;;6340009;28;20043;-69
2021/06/05 13:57:39;;;;;;;0.85;0.50;;;22.70;52.60;;;;;;6339118;28;20515;-67
2021/06/05 14:00:41;;;;;;;0.57;0.45;;;22.70;52.60;;;;;;6320747;28;20027;-67
2021/06/05 14:03:41;;;;;;;0.47;0.40;;;22.70;52.60;;;;;;6339975;28;20431;-67
2021/06/05 14:06:42;;;;;;;0.50;0.50;;;22.70;52.60;;;;;;6359340;27;20035;-67
2021/06/05 14:09:45;;;;;;;0.40;0.40;;;22.70;52.60;;;;;;6321494;28;20034;-68
2021/06/05 14:12:47;;;;;;;0.40;0.40;;;22.70;52.60;;;;;;6321112;28;20480;-67
2021/06/05 14:15:51;;;;;;;0.50;0.50;;;22.70;52.60;;;;;;6321300;28;20439;-67
2021/06/05 14:18:52;;;;;;;0.50;0.50;;;22.70;52.60;;;;;;6338855;28;20574;-67
2021/06/05 14:21:52;;;;;;;0.60;0.50;;;22.70;52.60;;;;;;6337425;28;20458;-67
2021/06/05 14:24:54;;;;;;;0.52;0.43;;;22.70;52.60;;;;;;6340828;28;20016;-67
2021/06/05 14:27:56;;;;;;;0.52;0.40;;;22.70;52.60;;;;;;6339261;28;20093;-67
2021/06/05 14:30:59;;;;;;;0.40;0.40;;;22.70;52.60;;;;;;6320351;28;20527;-67
2021/06/05 14:33:59;;;;;;;0.35;0.30;;;22.70;52.60;;;;;;6338930;28;20496;-67
2021/06/05 14:37:00;;;;;;;0.63;0.40;;;22.70;52.60;;;;;;6338677;28;20103;-67
2021/06/05 14:40:00;;;;;;;0.30;0.30;;;22.70;52.60;;;;;;6338378;28;20415;-67
2021/06/05 14:43:03;;;;;;;0.45;0.35;;;22.70;52.60;;;;;;6339226;28;20031;-67
2021/06/05 14:46:05;;;;;;;0.47;0.47;;;22.70;53.30;;;;;;6338636;28;20031;-67
2021/06/05 14:49:06;;;;;;;0.38;0.38;;;22.70;52.60;;;;;;6340317;28;20030;-66
2021/06/05 14:52:07;;;;;;;0.50;0.47;;;22.70;52.60;;;;;;6340613;28;20102;-66
2021/06/05 14:55:09;;;;;;;0.30;0.30;;;22.70;52.60;;;;;;6338752;28;20290;-66
2021/06/05 14:58:10;;;;;;;0.30;0.30;;;22.70;52.60;;;;;;6321359;28;20024;-66
2021/06/05 15:01:10;;;;;;;0.63;0.38;;;22.70;52.60;;;;;;6338875;28;20495;-66
2021/06/05 15:04:12;;;;;;;0.50;0.40;;;22.70;52.60;;;;;;6338853;28;20107;-66
2021/06/05 15:07:12;;;;;;;1.60;0.40;;;22.70;52.60;;;;;;6338637;28;20047;-66
2021/06/05 15:10:13;;;;;;;0.30;0.30;;;22.70;52.60;;;;;;6338580;28;20397;-66
2021/06/05 15:13:14;;;;;;;0.30;0.30;;;22.70;52.60;;;;;;6338102;28;20492;-66
2021/06/05 15:16:15;;;;;;;0.52;0.45;;;22.70;52.60;;;;;;6338647;28;20063;-66
2021/06/05 15:19:16;;;;;;;0.30;0.30;;;22.70;52.60;;;;;;6338213;28;20031;-67
2021/06/05 15:22:16;;;;;;;0.40;0.40;;;22.70;52.60;;;;;;6337984;28;20016;-67
2021/06/05 15:25:22;;;;;;;0.45;0.45;;;22.70;52.60;;;;;;6338263;28;20059;-67
2021/06/05 15:28:23;;;;;;;0.30;0.30;;;22.70;52.60;;;;;;6337852;28;20476;-67
2021/06/05 15:31:23;;;;;;;0.60;0.45;;;22.70;52.60;;;;;;6338513;28;20034;-67
2021/06/05 15:34:25;;;;;;;0.40;0.40;;;22.70;52.60;;;;;;6343549;28;20024;-67
2021/06/05 15:37:25;;;;;;;0.73;0.50;;;22.70;52.60;;;;;;6343034;28;20225;-67
2021/06/05 15:40:27;;;;;;;0.30;0.30;;;22.70;52.60;;;;;;6342585;28;20027;-67
2021/06/05 15:43:34;;;;;;;0.40;0.40;;;22.70;52.60;;;;;;6342774;28;20416;-67
2021/06/05 15:46:35;;;;;;;0.30;0.30;;;22.70;52.60;;;;;;6342609;28;20123;-67
2021/06/05 15:49:36;;;;;;;0.30;0.30;;;22.70;52.60;;;;;;6322086;28;20415;-67
2021/06/05 15:52:37;;;;;;;0.40;0.40;;;22.70;52.60;;;;;;6337444;28;20020;-67
2021/06/05 15:55:37;;;;;;;0.30;0.30;;;22.70;52.60;;;;;;6338838;28;20047;-67
2021/06/05 15:58:38;;;;;;;0.40;0.40;;;22.70;52.60;;;;;;6344451;28;20031;-67
2021/06/05 16:01:40;;;;;;;0.40;0.40;;;22.70;52.60;;;;;;6324379;28;20030;-67